createdAt,value
2023-05-20T00:01:39.437Z,10.90
2023-05-20T00:04:07.866Z,10.90
2023-05-20T00:06:37.817Z,10.90
2023-05-20T00:09:06.112Z,10.90
2023-05-20T00:11:34.435Z,10.80
2023-05-20T00:14:02.751Z,10.70
2023-05-20T00:16:31.210Z,10.70
2023-05-20T00:18:59.547Z,10.70
2023-05-20T00:21:27.882Z,10.70
2023-05-20T00:23:57.486Z,10.70
2023-05-20T00:26:26.072Z,10.60
2023-05-20T00:28:56.472Z,10.60
2023-05-20T00:31:24.910Z,10.60
2023-05-20T00:33:53.210Z,10.60
2023-05-20T00:36:21.649Z,10.60
2023-05-20T00:38:50.077Z,10.60
2023-05-20T00:41:19.936Z,10.50
2023-05-20T00:43:48.203Z,10.50
2023-05-20T00:46:16.583Z,10.50
2023-05-20T00:48:45.886Z,10.40
2023-05-20T00:51:15.687Z,10.40
2023-05-20T00:53:44.977Z,10.40
2023-05-20T00:56:13.969Z,10.40
2023-05-20T00:58:43.833Z,10.40
2023-05-20T01:01:12.147Z,10.40
2023-05-20T01:03:42.187Z,10.30
2023-05-20T01:06:10.561Z,10.30
2023-05-20T01:08:38.987Z,10.30
2023-05-20T01:11:11.626Z,10.30
2023-05-20T01:13:44.889Z,10.30
2023-05-20T01:16:14.431Z,10.30
2023-05-20T01:18:44.480Z,10.30
2023-05-20T01:21:14.830Z,10.20
2023-05-20T01:23:44.731Z,10.20
2023-05-20T01:26:13.803Z,10.20
2023-05-20T01:28:44.636Z,10.20
2023-05-20T01:31:19.366Z,10.10
2023-05-20T01:33:51.728Z,10.20
2023-05-20T01:36:22.143Z,10.10
2023-05-20T01:38:53.936Z,10.10
2023-05-20T01:41:24.905Z,10.00
2023-05-20T01:43:55.986Z,10.10
2023-05-20T01:46:24.528Z,10.00
2023-05-20T01:48:54.111Z,10.00
2023-05-20T01:51:22.474Z,10.00
2023-05-20T01:53:52.147Z,10.00
2023-05-20T01:56:22.024Z,9.90
2023-05-20T01:58:51.026Z,9.90
2023-05-20T02:01:19.431Z,9.90
2023-05-20T02:03:47.719Z,9.90
2023-05-20T02:06:16.033Z,9.90
2023-05-20T02:08:44.363Z,9.90
2023-05-20T02:11:14.094Z,9.90
2023-05-20T02:13:42.437Z,9.90
2023-05-20T02:16:11.018Z,9.90
2023-05-20T02:18:39.688Z,9.90
2023-05-20T02:21:08.160Z,9.80
2023-05-20T02:23:36.449Z,9.80
2023-05-20T02:26:04.854Z,9.80
2023-05-20T02:28:34.557Z,9.80
2023-05-20T02:31:02.875Z,9.70
2023-05-20T02:33:33.130Z,9.70
2023-05-20T02:36:02.017Z,9.70
2023-05-20T02:38:31.817Z,9.70
2023-05-20T02:41:00.122Z,9.70
2023-05-20T02:43:28.526Z,9.60
2023-05-20T02:45:58.188Z,9.60
2023-05-20T02:48:26.715Z,9.50
2023-05-20T02:50:55.360Z,9.60
2023-05-20T02:53:23.872Z,9.50
2023-05-20T02:55:52.268Z,9.50
2023-05-20T02:58:26.479Z,9.50
2023-05-20T03:00:55.256Z,9.50
2023-05-20T03:03:25.168Z,9.40
2023-05-20T03:05:53.502Z,9.40
2023-05-20T03:08:22.856Z,9.40
2023-05-20T03:10:51.714Z,9.40
2023-05-20T03:13:20.014Z,9.40
2023-05-20T03:15:48.301Z,9.40
2023-05-20T03:18:16.616Z,9.40
2023-05-20T03:20:47.649Z,9.40
2023-05-20T03:23:16.028Z,9.30
2023-05-20T03:25:44.294Z,9.30
2023-05-20T03:28:12.859Z,9.30
2023-05-20T03:30:41.152Z,9.30
2023-05-20T03:33:09.764Z,9.30
2023-05-20T03:35:38.060Z,9.30
2023-05-20T03:38:07.701Z,9.30
2023-05-20T03:40:38.377Z,9.30
2023-05-20T03:43:07.244Z,9.30
2023-05-20T03:45:35.829Z,9.30
2023-05-20T03:48:07.711Z,9.30
2023-05-20T03:50:37.276Z,9.20
2023-05-20T03:53:07.196Z,9.20
2023-05-20T03:55:40.806Z,9.20
2023-05-20T03:58:09.728Z,9.10
2023-05-20T04:00:38.054Z,9.10
2023-05-20T04:03:06.634Z,9.10
2023-05-20T04:05:37.297Z,9.00
2023-05-20T04:08:13.630Z,9.00
2023-05-20T04:10:43.528Z,9.00
2023-05-20T04:13:13.442Z,9.00
2023-05-20T04:15:42.726Z,9.00
2023-05-20T04:18:12.164Z,9.00
2023-05-20T04:20:41.328Z,9.00
2023-05-20T04:23:11.461Z,9.00
2023-05-20T04:25:41.297Z,9.00
2023-05-20T04:28:10.815Z,9.00
2023-05-20T04:30:39.214Z,9.10
2023-05-20T04:33:08.865Z,9.10
2023-05-20T04:35:37.730Z,9.10
2023-05-20T04:38:07.691Z,9.00
2023-05-20T04:40:37.551Z,9.00
2023-05-20T04:43:06.048Z,9.00
2023-05-20T04:45:35.746Z,9.00
2023-05-20T04:48:04.342Z,9.00
2023-05-20T04:50:32.626Z,9.10
2023-05-20T04:53:00.960Z,9.00
2023-05-20T04:55:30.807Z,9.10
2023-05-20T04:58:00.618Z,9.10
2023-05-20T05:00:29.710Z,9.10
2023-05-20T05:02:58.136Z,9.10
2023-05-20T05:05:26.458Z,9.00
2023-05-20T05:07:55.124Z,9.10
2023-05-20T05:10:25.181Z,9.10
2023-05-20T05:12:53.473Z,9.10
2023-05-20T05:15:23.256Z,9.10
2023-05-20T05:17:51.604Z,9.10
2023-05-20T05:20:20.120Z,9.20
2023-05-20T05:22:50.406Z,9.20
2023-05-20T05:25:18.770Z,9.20
2023-05-20T05:27:49.238Z,9.30
2023-05-20T05:30:17.869Z,9.30
2023-05-20T05:32:47.653Z,9.30
2023-05-20T05:35:16.119Z,9.30
2023-05-20T05:37:44.537Z,9.30
2023-05-20T05:40:14.264Z,9.40
2023-05-20T05:42:42.603Z,9.40
2023-05-20T05:45:13.436Z,9.40
2023-05-20T05:48:42.857Z,9.50
2023-05-20T05:54:44.126Z,9.60
2023-05-20T05:57:27.079Z,9.70
2023-05-20T06:00:45.176Z,9.80
2023-05-20T06:03:46.146Z,9.90
2023-05-20T06:07:14.434Z,10.00
2023-05-20T06:10:05.516Z,10.10
2023-05-20T06:17:47.302Z,10.30
2023-05-20T06:24:00.382Z,10.50
2023-05-20T06:26:57.261Z,10.60
2023-05-20T06:27:12.989Z,10.40
2023-05-20T06:30:07.159Z,10.70
2023-05-20T21:22:00.799Z,14.40
2023-05-20T21:24:29.360Z,14.40
2023-05-20T21:26:57.911Z,14.30
2023-05-20T21:29:26.590Z,14.30
2023-05-20T21:31:55.204Z,14.20
2023-05-20T21:34:24.598Z,14.20
2023-05-20T21:36:53.129Z,14.10
2023-05-20T21:39:22.810Z,14.10
2023-05-20T21:41:51.195Z,14.10
2023-05-20T21:44:19.730Z,14.00
2023-05-20T21:46:48.029Z,14.00
2023-05-20T21:49:16.400Z,13.90
2023-05-20T21:51:44.733Z,13.90
2023-05-20T21:54:13.065Z,13.90
2023-05-20T21:56:42.694Z,13.80
2023-05-20T21:59:10.937Z,13.80
2023-05-20T22:01:39.292Z,13.80
2023-05-20T22:04:07.957Z,13.80
2023-05-20T22:06:36.787Z,13.70
2023-05-20T22:09:05.912Z,13.60
2023-05-20T22:11:34.243Z,13.60
2023-05-20T22:14:04.879Z,13.60
2023-05-20T22:16:33.366Z,13.50
2023-05-20T22:19:02.547Z,13.50
2023-05-20T22:21:34.206Z,13.50
2023-05-20T22:24:08.057Z,13.40
2023-05-20T22:26:36.502Z,13.40
2023-05-20T22:29:06.377Z,13.40
2023-05-20T22:31:34.695Z,13.40
2023-05-20T22:34:04.513Z,13.30
2023-05-20T22:36:36.386Z,13.20
2023-05-20T22:39:06.966Z,13.20
2023-05-20T22:41:35.335Z,13.20
2023-05-20T22:44:05.183Z,13.10
2023-05-20T22:46:33.562Z,13.10
2023-05-20T22:49:01.966Z,13.10
2023-05-20T22:51:31.254Z,13.10
2023-05-20T22:53:59.551Z,13.10
2023-05-20T22:56:27.811Z,13.10
2023-05-20T22:58:56.141Z,13.10
2023-05-20T23:01:25.898Z,13.10
2023-05-20T23:03:54.408Z,13.10
2023-05-20T23:06:23.222Z,13.00
2023-05-20T23:08:52.022Z,13.00
2023-05-20T23:11:20.831Z,13.00
2023-05-20T23:13:49.224Z,13.00
2023-05-20T23:16:17.692Z,13.00
2023-05-20T23:18:47.573Z,13.00
2023-05-20T23:21:15.895Z,13.00
2023-05-20T23:23:44.116Z,13.00
2023-05-20T23:26:12.714Z,13.00
2023-05-20T23:28:41.838Z,13.00
2023-05-20T23:31:10.807Z,12.90
2023-05-20T23:33:39.180Z,12.90
2023-05-20T23:36:10.066Z,12.90
2023-05-20T23:38:38.538Z,12.90
2023-05-20T23:41:06.983Z,12.90
2023-05-20T23:43:35.570Z,12.90
2023-05-20T23:46:03.976Z,12.90
2023-05-20T23:48:32.291Z,12.80
2023-05-20T23:51:00.617Z,12.80
2023-05-20T23:53:30.603Z,12.70
2023-05-20T23:55:58.889Z,12.70
2023-05-20T23:58:27.157Z,12.60
